Sidney, NY (13838)

4:09 AM EDT on August 28, 2014 (GMT -0400)
Hanehan Family Dairy | Change Station
CLOSE
Current Station
Personal Weather Station
Location: Mount Upton, NY
Elevation: 1024 ft
Nearby Weather Stations

Elev 1024 ft 42.36 °N, 75.40 °W | Updated 54 minutes ago

Clear
Clear
55.7 °F
Feels Like 55.7 °F
N
0.0
Wind Variable Wind from WNW
Gusts 17.0 mph

Today
High -- | Low -- °F
--% Chance of Precip.
Yesterday
High -- | Low -- °F
Precip. -- in
6:22 AM 7:42 PM
Waxing Crescent, 7% visible
Pressure 29.97 in
Visibility 10.0 miles
Clouds Scattered Clouds 900 ft
Dew Point 54 °F
Humidity 95%
Rainfall 0.00 in
Snow Depth Not available.
UV 0 out of 12
Pollen 9.20 out of 12
PM2.5 Good
Flu Activity Not available.
METAR KBGM 280753Z AUTO 33006KT 10SM SCT009 14/12 A2999 RMK AO2 SLP148 T01390122

More Conditions Fewer Conditions

Pressure 29.97 in
Visibility 10.0 miles
Clouds Scattered Clouds 900 ft
Dew Point 54 °F
Humidity 95%
Rainfall 0.00 in
Snow Depth Not available.
UV 0 out of 12
Pollen 9.20 out of 12
PM2.5 Good
Flu Activity Not available.
METAR KBGM 280753Z AUTO 33006KT 10SM SCT009 14/12 A2999 RMK AO2 SLP148 T01390122

More Conditions Fewer Conditions

10-Day Weather Forecast

Almanac

Astronomy

Aug. 28, 2014 Rise Set
Actual Time 6:22 AM EDT 7:42 PM EDT
Civil Twilight 5:53 AM EDT 8:11 PM EDT
Nautical Twilight 5:18 AM EDT 8:46 PM EDT
Astronomical Twilight 4:41 AM EDT 9:23 PM EDT
Moon 9:16 AM EDT 9:00 PM EDT
Length of Visible Light 14h 17m
Length of Day
13h 19m
Tomorrow will be 2m 43s shorter.
Waxing Crescent, 7% of the Moon is Illuminated
Today
Waxing Crescent
Sep 2
First Quarter
Sep 8
Full
Sep 15
Last Quarter
Sep 24
New

Today's Extremes

State Highs State Lows

Community

WunderPhotos

Upload Photos

1,747,916 photos uploaded!

Nearby

Air Quality

  Air Quality AQ Index Pollutant
Yesterday Good
OZONE
Yesterday Good
PM2.5
Current Good
PM2.5
Thursday Good
OZONE
Thursday Good
PM2.5

Snow Depth

Station Depth Elevation
No new snow has been reported.

Earthquake Activity

City Distance Mag. Time & Date
No recent earthquake activity has been reported nearby.
Minimum magnitude displayed is 2.5.

Coastal Water Temperatures

Place Temperature
No Stations Reporting

Nearby Weather Stations